Time;durP1;ratioP1;P1;durP2;ratioP2;P2;SDS_P1;SDS_P2;PMS_P1;PMS_P2;Temp;Humidity;BMP_temperature;BMP_pressure;BME280_temperature;BME280_humidity;BME280_pressure;Samples;Min_cycle;Max_cycle;Signal;HPM_P1;HPM_P2
2022/12/26 00:01:53;;;;;;;26.73;12.15;;;7.10;99.90;;;;;;5097096;28;20089;-73
2022/12/26 00:04:19;;;;;;;33.20;13.10;;;7.20;99.90;;;;;;5097367;28;20028;-73
2022/12/26 00:06:45;;;;;;;31.52;12.77;;;7.10;99.90;;;;;;5095255;28;20027;-73
2022/12/26 00:09:11;;;;;;;25.63;10.80;;;7.10;99.90;;;;;;5094414;28;20024;-73
2022/12/26 00:11:37;;;;;;;35.80;12.77;;;7.10;99.90;;;;;;5111282;28;20050;-73
2022/12/26 00:14:10;;;;;;;38.00;12.32;;;7.10;99.90;;;;;;5093281;28;20023;-73
2022/12/26 00:16:39;;;;;;;29.58;10.73;;;7.10;99.90;;;;;;5092289;28;20109;-72
2022/12/26 00:19:04;;;;;;;31.48;11.23;;;7.10;99.90;;;;;;5091233;28;20024;-72
2022/12/26 00:21:30;;;;;;;28.38;11.98;;;7.10;99.90;;;;;;5093657;28;20479;-73
2022/12/26 00:23:58;;;;;;;30.02;11.98;;;7.10;99.90;;;;;;5112810;28;20077;-72
2022/12/26 00:26:27;;;;;;;30.02;11.27;;;7.10;99.90;;;;;;5093147;28;20039;-72
2022/12/26 00:28:54;;;;;;;28.92;11.32;;;7.10;99.90;;;;;;5108377;28;20074;-72
2022/12/26 00:31:23;;;;;;;49.55;14.32;;;7.10;99.90;;;;;;5075378;28;20024;-74
2022/12/26 00:33:49;;;;;;;38.45;14.23;;;7.10;99.90;;;;;;5075417;28;20027;-74
2022/12/26 00:36:19;;;;;;;33.25;11.55;;;7.10;99.90;;;;;;5094113;28;20020;-72
2022/12/26 00:38:45;;;;;;;36.93;13.07;;;7.10;99.90;;;;;;5091398;28;20027;-72
2022/12/26 00:41:16;;;;;;;40.35;13.07;;;7.10;99.90;;;;;;5093417;28;20020;-72
2022/12/26 00:43:41;;;;;;;46.90;14.27;;;7.10;99.90;;;;;;5093061;28;20028;-72
2022/12/26 00:46:08;;;;;;;50.90;12.80;;;7.10;99.90;;;;;;5109741;28;20410;-72
2022/12/26 00:48:34;;;;;;;33.88;11.68;;;7.10;99.90;;;;;;5076084;28;20524;-72
2022/12/26 00:51:00;;;;;;;37.47;11.75;;;7.10;99.90;;;;;;5092007;28;20051;-72
2022/12/26 00:53:26;;;;;;;45.50;12.88;;;7.10;99.90;;;;;;5110262;28;20027;-72
2022/12/26 00:55:52;;;;;;;1999.90;908.65;;;7.10;99.90;;;;;;5093846;28;20020;-72
2022/12/26 00:58:19;;;;;;;422.40;210.50;;;7.50;99.90;;;;;;5111838;28;20023;-72
2022/12/26 01:00:45;;;;;;;617.92;355.10;;;7.30;99.90;;;;;;5110449;28;20387;-72
2022/12/26 01:03:11;;;;;;;382.10;181.52;;;7.30;99.90;;;;;;5069491;28;20028;-72
2022/12/26 01:05:45;;;;;;;160.85;77.70;;;7.20;99.90;;;;;;5075881;28;20383;-72
2022/12/26 01:08:12;;;;;;;70.82;19.55;;;7.20;99.90;;;;;;5091785;28;20483;-72
2022/12/26 01:10:41;;;;;;;56.40;15.10;;;7.50;99.90;;;;;;5111220;28;20135;-72
2022/12/26 01:13:08;;;;;;;53.03;14.68;;;7.30;99.90;;;;;;5095620;28;20046;-72
2022/12/26 01:15:33;;;;;;;59.67;14.68;;;7.30;99.90;;;;;;5130004;28;20020;-72
2022/12/26 01:18:00;;;;;;;53.70;13.98;;;7.30;99.90;;;;;;5109657;28;20031;-72
2022/12/26 01:20:26;;;;;;;71.80;16.05;;;7.20;99.90;;;;;;5099767;28;20040;-72
2022/12/26 01:22:53;;;;;;;50.60;15.30;;;7.20;99.90;;;;;;5093387;28;20555;-72
2022/12/26 01:25:19;;;;;;;89.65;15.65;;;7.20;99.90;;;;;;5110649;28;20131;-72
2022/12/26 01:27:44;;;;;;;43.45;12.57;;;7.10;99.90;;;;;;5091057;28;20027;-72
2022/12/26 01:30:11;;;;;;;48.67;13.68;;;7.10;99.90;;;;;;5091814;28;20407;-72
2022/12/26 01:32:36;;;;;;;45.90;13.82;;;7.10;99.90;;;;;;5110814;28;20506;-72
2022/12/26 01:35:02;;;;;;;56.53;15.25;;;7.10;99.90;;;;;;5074237;28;20147;-72
2022/12/26 01:37:28;;;;;;;45.00;13.32;;;7.10;99.90;;;;;;5111782;28;20032;-73
2022/12/26 01:39:54;;;;;;;34.35;12.63;;;7.10;99.90;;;;;;5109864;28;20039;-73
2022/12/26 01:42:23;;;;;;;41.22;12.40;;;7.10;99.90;;;;;;5095362;28;20028;-72
2022/12/26 01:45:10;;;;;;;65.28;16.20;;;7.10;99.90;;;;;;5110647;28;20053;-72
2022/12/26 01:47:38;;;;;;;46.38;12.80;;;7.10;99.90;;;;;;5111991;28;20027;-72
2022/12/26 01:50:05;;;;;;;93.13;16.85;;;7.10;99.90;;;;;;5089715;28;20080;-72
2022/12/26 01:52:43;;;;;;;52.45;15.20;;;7.10;99.90;;;;;;5090323;28;20035;-72
2022/12/26 01:55:13;;;;;;;46.47;14.77;;;7.10;99.90;;;;;;5111360;28;20027;-72
2022/12/26 01:57:43;;;;;;;57.08;14.95;;;7.10;99.90;;;;;;5089737;28;20024;-72
2022/12/26 02:00:10;;;;;;;55.33;15.32;;;7.10;99.90;;;;;;5107867;28;20035;-72
2022/12/26 02:05:32;;;;;;;46.28;14.85;;;7.10;99.90;;;;;;5090841;28;20654;-73
2022/12/26 02:05:34;;;;;;;71.50;16.60;;;7.10;99.90;;;;;;5111480;28;20031;-72
2022/12/26 02:08:12;;;;;;;54.78;16.27;;;7.10;99.90;;;;;;5089499;28;20157;-72
2022/12/26 02:11:08;;;;;;;56.00;17.05;;;7.00;99.90;;;;;;5090761;28;20028;-72
2022/12/26 02:13:36;;;;;;;51.30;16.42;;;7.00;99.90;;;;;;5092639;28;20482;-72
2022/12/26 02:16:04;;;;;;;58.83;17.20;;;7.10;99.90;;;;;;5110055;28;20049;-71
2022/12/26 02:18:30;;;;;;;56.78;17.23;;;7.10;99.90;;;;;;5085938;28;20035;-72
2022/12/26 02:21:22;;;;;;;66.78;18.58;;;7.10;99.90;;;;;;5090005;28;20616;-72
2022/12/26 02:24:09;;;;;;;58.25;17.98;;;7.10;99.90;;;;;;4987913;28;20080;-72
2022/12/26 02:26:53;;;;;;;58.47;17.23;;;7.10;99.90;;;;;;4987598;28;20038;-72
2022/12/26 02:29:46;;;;;;;74.63;18.83;;;7.10;99.90;;;;;;5005114;28;20057;-72
2022/12/26 02:32:48;;;;;;;78.47;20.13;;;7.10;99.90;;;;;;5005887;28;20026;-72
2022/12/26 02:35:32;;;;;;;52.25;18.10;;;7.10;99.90;;;;;;4991886;28;20046;-71
2022/12/26 02:38:27;;;;;;;46.55;17.55;;;7.00;99.90;;;;;;5006985;28;20025;-71
2022/12/26 02:41:03;;;;;;;69.20;19.70;;;7.10;99.90;;;;;;5006825;28;20123;-71
2022/12/26 02:43:47;;;;;;;48.75;16.77;;;7.10;99.90;;;;;;5006101;28;20034;-72
2022/12/26 02:49:31;;;;;;;46.67;16.55;;;7.10;99.90;;;;;;5005402;28;20029;-72
2022/12/26 03:15:10;;;;;;;38.67;13.88;;;7.20;99.90;;;;;;5109101;28;20160;-72
2022/12/26 03:17:52;;;;;;;41.72;13.65;;;7.20;99.90;;;;;;5089811;28;20483;-71
2022/12/26 03:20:30;;;;;;;47.95;14.38;;;7.20;99.90;;;;;;5090533;28;20377;-72
2022/12/26 03:23:10;;;;;;;34.55;11.90;;;7.20;99.90;;;;;;5089930;28;20099;-72
2022/12/26 03:28:46;;;;;;;41.88;12.98;;;7.30;99.90;;;;;;5113800;28;20023;-72
2022/12/26 03:31:14;;;;;;;37.40;12.60;;;7.30;99.90;;;;;;5094804;28;20061;-72
2022/12/26 03:36:38;;;;;;;37.38;13.65;;;7.30;99.90;;;;;;5111407;28;20139;-72
2022/12/26 04:44:24;;;;;;;52.03;15.98;;;7.40;99.90;;;;;;5092514;28;20043;-72
2022/12/26 04:46:52;;;;;;;61.45;17.25;;;7.40;99.90;;;;;;5091799;28;20028;-72
2022/12/26 04:52:06;;;;;;;41.95;13.20;;;7.40;99.90;;;;;;5112594;28;20039;-72
2022/12/26 04:54:32;;;;;;;65.13;16.63;;;7.50;99.90;;;;;;5093144;28;20259;-72
2022/12/26 04:56:58;;;;;;;44.63;15.70;;;7.50;99.90;;;;;;5111617;28;20031;-72
2022/12/26 04:59:24;;;;;;;46.55;14.23;;;7.50;99.90;;;;;;5110246;28;20027;-72
2022/12/26 05:10:21;;;;;;;58.08;16.55;;;7.50;99.90;;;;;;5119659;28;20027;-72
2022/12/26 05:12:47;;;;;;;45.60;16.23;;;7.40;99.90;;;;;;5102133;28;20035;-72
2022/12/26 05:15:13;;;;;;;44.85;15.38;;;7.50;99.90;;;;;;5115088;28;20479;-72
2022/12/26 05:29:06;;;;;;;55.50;17.35;;;7.50;99.90;;;;;;5109160;28;20391;-72
2022/12/26 05:31:32;;;;;;;57.63;18.55;;;7.50;99.90;;;;;;5093078;28;20038;-73
2022/12/26 05:34:09;;;;;;;63.72;18.95;;;7.50;99.90;;;;;;5110836;28;20437;-72
2022/12/26 05:36:47;;;;;;;49.13;17.15;;;7.50;99.90;;;;;;5093187;28;20030;-73
2022/12/26 05:39:13;;;;;;;58.65;17.50;;;7.50;99.90;;;;;;5088201;28;20031;-73
2022/12/26 05:41:39;;;;;;;52.03;18.02;;;7.50;99.90;;;;;;5108330;28;20103;-73
2022/12/26 05:44:05;;;;;;;60.00;19.42;;;7.50;99.90;;;;;;5109881;28;20080;-73
2022/12/26 05:46:31;;;;;;;60.15;18.23;;;7.50;99.90;;;;;;5110922;28;20452;-73
2022/12/26 05:48:57;;;;;;;63.00;19.48;;;7.50;99.90;;;;;;5092551;28;20473;-73
2022/12/26 05:51:23;;;;;;;52.17;18.60;;;7.50;99.90;;;;;;5110738;28;20027;-73
2022/12/26 05:53:50;;;;;;;62.47;19.73;;;7.50;99.90;;;;;;5109635;28;20073;-73
2022/12/26 05:56:17;;;;;;;56.17;19.73;;;7.60;99.90;;;;;;5108602;28;20032;-73
2022/12/26 05:58:43;;;;;;;56.10;19.50;;;7.60;99.90;;;;;;5093603;28;20115;-73
2022/12/26 06:01:14;;;;;;;83.93;23.23;;;7.60;99.90;;;;;;5112851;28;20359;-73
2022/12/26 06:03:42;;;;;;;59.10;19.25;;;7.60;99.90;;;;;;5094419;28;20062;-73
2022/12/26 06:06:09;;;;;;;65.47;21.25;;;7.60;99.90;;;;;;5111620;28;20027;-73
2022/12/26 06:08:35;;;;;;;84.72;23.02;;;7.60;99.90;;;;;;5110875;28;20080;-73
2022/12/26 06:11:09;;;;;;;88.53;24.83;;;7.60;99.90;;;;;;5109701;28;20031;-74
2022/12/26 06:13:35;;;;;;;105.68;27.17;;;7.60;99.90;;;;;;5108085;28;20023;-72
2022/12/26 06:16:13;;;;;;;67.50;21.75;;;7.60;99.90;;;;;;5110078;28;20073;-72
2022/12/26 06:18:39;;;;;;;84.63;24.98;;;7.60;99.90;;;;;;5090767;28;20026;-72
2022/12/26 06:21:07;;;;;;;84.93;25.83;;;7.60;99.90;;;;;;5110085;28;20024;-72
2022/12/26 06:23:35;;;;;;;91.45;25.92;;;7.60;99.90;;;;;;5109188;28;20027;-72
2022/12/26 06:26:01;;;;;;;121.95;27.60;;;7.60;99.90;;;;;;5091712;28;20028;-73
2022/12/26 06:28:27;;;;;;;74.68;23.50;;;7.60;99.90;;;;;;5110810;28;20039;-73
2022/12/26 06:30:53;;;;;;;80.93;24.50;;;7.60;99.90;;;;;;5090001;28;20134;-72
2022/12/26 06:33:19;;;;;;;76.82;24.00;;;7.60;99.90;;;;;;5109751;28;20031;-72
2022/12/26 06:35:45;;;;;;;74.45;22.45;;;7.70;99.90;;;;;;5093436;28;20076;-72
2022/12/26 06:38:11;;;;;;;85.10;23.55;;;7.70;99.90;;;;;;5093287;28;20052;-73
2022/12/26 06:40:40;;;;;;;72.55;21.98;;;7.70;99.90;;;;;;5114209;28;20069;-73
2022/12/26 06:43:07;;;;;;;68.38;21.77;;;7.70;99.90;;;;;;5099701;28;20043;-72
2022/12/26 06:45:33;;;;;;;60.45;20.40;;;7.70;99.90;;;;;;5115739;28;20047;-73
2022/12/26 06:47:59;;;;;;;74.65;24.02;;;7.70;99.90;;;;;;5112044;28;20035;-73
2022/12/26 06:50:25;;;;;;;80.53;23.08;;;7.70;99.90;;;;;;5094948;28;20035;-74
2022/12/26 06:52:51;;;;;;;66.95;22.33;;;7.70;99.90;;;;;;5094335;28;20111;-73
2022/12/26 06:55:17;;;;;;;80.13;22.60;;;7.70;99.90;;;;;;5092710;28;20059;-73
2022/12/26 06:57:42;;;;;;;80.68;22.92;;;7.70;99.90;;;;;;5110593;28;20034;-72
2022/12/26 07:00:09;;;;;;;51.53;18.08;;;7.70;99.90;;;;;;5091689;28;20023;-73
2022/12/26 07:02:36;;;;;;;50.38;19.02;;;7.70;99.90;;;;;;5107266;28;20027;-73
2022/12/26 07:05:01;;;;;;;60.88;19.73;;;7.70;99.90;;;;;;5089352;28;20034;-73
2022/12/26 07:07:27;;;;;;;54.30;20.55;;;7.80;99.90;;;;;;5109435;28;20036;-73
2022/12/26 07:09:53;;;;;;;55.08;20.75;;;7.80;99.90;;;;;;5109156;28;20054;-74
2022/12/26 07:12:20;;;;;;;52.35;20.50;;;7.80;99.90;;;;;;5090836;28;20444;-74
2022/12/26 07:14:47;;;;;;;50.03;19.88;;;7.80;99.90;;;;;;5073088;28;20488;-74
2022/12/26 07:17:13;;;;;;;54.40;21.83;;;7.80;99.90;;;;;;5072522;28;20024;-74
2022/12/26 07:19:38;;;;;;;83.43;22.67;;;7.80;99.90;;;;;;5086730;28;20402;-74
2022/12/26 07:22:04;;;;;;;56.92;21.13;;;7.80;99.90;;;;;;5105315;28;20463;-74
2022/12/26 07:24:30;;;;;;;77.28;24.23;;;7.80;99.90;;;;;;5089177;28;20026;-74
2022/12/26 07:26:55;;;;;;;57.38;20.58;;;7.80;99.90;;;;;;5108446;28;20028;-74
2022/12/26 07:29:21;;;;;;;62.85;21.73;;;7.80;99.90;;;;;;5089509;28;20053;-73
2022/12/26 07:31:47;;;;;;;65.95;21.73;;;7.80;99.90;;;;;;5108935;28;20094;-74
2022/12/26 07:34:13;;;;;;;68.20;22.75;;;7.80;99.90;;;;;;5109271;28;20023;-74
2022/12/26 07:36:40;;;;;;;79.53;23.30;;;7.90;99.90;;;;;;5072964;28;20031;-74
2022/12/26 07:39:05;;;;;;;52.47;21.88;;;7.90;99.90;;;;;;5107515;28;20525;-74
2022/12/26 07:44:15;;;;;;;53.13;20.73;;;7.90;99.90;;;;;;5109616;28;20023;-74
2022/12/26 07:46:41;;;;;;;55.85;22.67;;;7.90;99.90;;;;;;5088731;28;20031;-74
2022/12/26 07:49:07;;;;;;;54.50;22.15;;;7.90;99.90;;;;;;5109183;28;20080;-74
2022/12/26 07:51:33;;;;;;;62.75;21.77;;;7.90;99.90;;;;;;5091611;28;20036;-74
2022/12/26 07:53:58;;;;;;;36.75;15.75;;;7.90;99.90;;;;;;5089417;28;20378;-72
2022/12/26 07:56:24;;;;;;;64.53;23.58;;;8.10;99.90;;;;;;5089622;28;20506;-72
2022/12/26 07:58:50;;;;;;;59.72;23.23;;;8.10;99.90;;;;;;5108697;28;20028;-73
2022/12/26 08:01:17;;;;;;;59.33;23.35;;;8.00;99.90;;;;;;5090735;28;20153;-73
2022/12/26 08:03:43;;;;;;;63.03;24.55;;;7.90;99.90;;;;;;5109163;28;20068;-72
2022/12/26 08:06:10;;;;;;;63.40;24.52;;;7.90;99.90;;;;;;5091332;28;20523;-73
2022/12/26 08:08:36;;;;;;;64.53;24.17;;;7.90;99.90;;;;;;5090525;28;20032;-72
2022/12/26 08:11:07;;;;;;;61.42;25.17;;;7.90;99.90;;;;;;5089046;28;20026;-72
2022/12/26 08:13:33;;;;;;;55.35;23.38;;;7.90;99.90;;;;;;5090145;28;20027;-72
2022/12/26 08:16:07;;;;;;;63.67;26.27;;;7.90;99.90;;;;;;5092538;28;20024;-72
2022/12/26 08:18:33;;;;;;;59.53;24.02;;;8.00;99.90;;;;;;5112861;28;20111;-72
2022/12/26 08:20:59;;;;;;;65.93;25.25;;;7.90;99.90;;;;;;5094768;28;20447;-71
2022/12/26 08:23:24;;;;;;;64.53;27.30;;;7.90;99.90;;;;;;5094018;28;20055;-72
2022/12/26 08:25:50;;;;;;;88.07;30.40;;;7.90;99.90;;;;;;5112388;28;20089;-72
2022/12/26 08:28:16;;;;;;;82.78;30.92;;;7.90;99.90;;;;;;5075106;28;20491;-72
2022/12/26 08:30:42;;;;;;;60.22;25.77;;;7.90;99.90;;;;;;5095256;28;20108;-72
2022/12/26 08:33:09;;;;;;;67.07;27.98;;;8.00;99.90;;;;;;5101328;28;20467;-72
2022/12/26 08:35:36;;;;;;;66.50;26.23;;;7.90;99.90;;;;;;5092393;28;20104;-72
2022/12/26 08:38:02;;;;;;;74.70;28.92;;;8.00;99.90;;;;;;5093373;28;20028;-72
2022/12/26 08:40:29;;;;;;;76.65;30.08;;;8.00;99.90;;;;;;5093730;28;20051;-72
2022/12/26 08:42:55;;;;;;;68.93;27.50;;;8.00;99.90;;;;;;5075355;28;20031;-72
2022/12/26 08:45:22;;;;;;;68.22;29.40;;;8.00;99.90;;;;;;5092754;28;20112;-73
2022/12/26 08:47:48;;;;;;;68.93;28.63;;;8.10;99.90;;;;;;5093223;28;20039;-72
2022/12/26 08:50:15;;;;;;;55.38;26.25;;;8.10;99.90;;;;;;5110918;28;20436;-72
2022/12/26 08:52:41;;;;;;;71.00;29.20;;;8.10;99.90;;;;;;5092682;28;20023;-72
2022/12/26 08:55:07;;;;;;;80.47;29.63;;;8.10;99.90;;;;;;5074645;28;20024;-72
2022/12/26 08:57:33;;;;;;;54.42;25.33;;;8.00;99.90;;;;;;5092306;28;20028;-73
2022/12/26 08:59:58;;;;;;;67.75;28.10;;;8.10;99.90;;;;;;5110057;28;20036;-72
2022/12/26 09:02:24;;;;;;;65.18;26.38;;;8.10;99.90;;;;;;5112579;28;20051;-72
2022/12/26 09:04:50;;;;;;;71.65;28.85;;;8.10;99.90;;;;;;5111752;28;20495;-73
2022/12/26 09:07:16;;;;;;;84.72;29.08;;;8.10;99.90;;;;;;5093881;28;20031;-73
2022/12/26 09:09:43;;;;;;;84.13;29.55;;;8.10;99.90;;;;;;5092236;28;20024;-73
2022/12/26 09:12:08;;;;;;;64.75;26.85;;;8.10;99.90;;;;;;5111945;28;20053;-74
2022/12/26 09:14:34;;;;;;;63.17;27.30;;;8.20;99.90;;;;;;5094888;28;20501;-74
2022/12/26 09:17:00;;;;;;;63.67;26.73;;;8.20;99.90;;;;;;5108466;28;20526;-73
2022/12/26 09:19:28;;;;;;;67.55;27.55;;;8.20;99.90;;;;;;5092416;28;20023;-74
2022/12/26 09:22:49;;;;;;;73.97;28.33;;;8.20;99.90;;;;;;5092926;28;20027;-74
2022/12/26 09:24:40;;;;;;;65.43;27.35;;;8.20;99.90;;;;;;5110657;28;20080;-74
2022/12/26 09:27:06;;;;;;;56.63;25.67;;;8.30;99.90;;;;;;5092450;28;20036;-73
2022/12/26 09:29:32;;;;;;;73.43;28.80;;;8.30;99.90;;;;;;5091504;28;20111;-73
2022/12/26 09:31:58;;;;;;;56.72;25.23;;;8.30;99.90;;;;;;5110517;28;20168;-74
2022/12/26 09:34:24;;;;;;;52.85;24.85;;;8.30;99.90;;;;;;5093100;28;20375;-74
2022/12/26 09:36:50;;;;;;;68.90;25.85;;;8.30;99.90;;;;;;5092703;28;20020;-74
2022/12/26 09:39:15;;;;;;;71.97;25.77;;;8.30;99.90;;;;;;5111053;28;20028;-74
2022/12/26 09:41:48;;;;;;;66.53;25.20;;;8.30;99.90;;;;;;5111251;28;20024;-74
2022/12/26 09:44:37;;;;;;;72.72;25.83;;;8.30;99.90;;;;;;5110839;28;20027;-74
2022/12/26 09:47:24;;;;;;;62.78;24.58;;;8.30;99.90;;;;;;5090778;28;20043;-73
2022/12/26 09:50:15;;;;;;;54.90;21.77;;;8.30;99.90;;;;;;5091929;28;20090;-73
2022/12/26 09:52:43;;;;;;;53.65;22.42;;;8.40;99.90;;;;;;5092183;28;20076;-73
2022/12/26 09:55:49;;;;;;;51.58;22.35;;;8.30;99.90;;;;;;5075182;28;20422;-73
2022/12/26 09:58:27;;;;;;;57.30;21.80;;;8.30;99.90;;;;;;5090447;28;20020;-72
2022/12/26 10:01:19;;;;;;;50.47;21.45;;;8.40;99.90;;;;;;5091382;28;20015;-73
2022/12/26 10:03:55;;;;;;;48.08;20.73;;;8.30;99.90;;;;;;5079830;28;20453;-73
2022/12/26 10:06:45;;;;;;;44.08;20.13;;;8.40;99.90;;;;;;5074313;28;20402;-73
2022/12/26 10:09:28;;;;;;;43.10;20.95;;;8.40;99.90;;;;;;5091856;28;20084;-72
2022/12/26 10:12:03;;;;;;;44.60;20.73;;;8.40;99.90;;;;;;5110256;28;20063;-73
2022/12/26 10:14:34;;;;;;;42.88;19.55;;;8.40;99.90;;;;;;5111073;28;20020;-72
2022/12/26 10:17:13;;;;;;;40.92;19.58;;;8.40;99.90;;;;;;5115903;28;20023;-72
2022/12/26 10:20:16;;;;;;;38.22;18.92;;;8.40;99.90;;;;;;5109022;28;20417;-73
2022/12/26 10:23:06;;;;;;;38.22;19.58;;;8.50;99.90;;;;;;5109424;28;20023;-72
2022/12/26 10:25:52;;;;;;;44.33;19.83;;;8.50;99.90;;;;;;5090865;28;20024;-73
2022/12/26 10:28:39;;;;;;;42.28;19.60;;;8.40;99.90;;;;;;5111014;28;20030;-72
2022/12/26 10:31:26;;;;;;;43.08;19.42;;;8.40;99.90;;;;;;5006910;28;20065;-73
2022/12/26 10:34:03;;;;;;;38.80;19.58;;;8.50;99.90;;;;;;4991004;28;20030;-73
2022/12/26 10:36:49;;;;;;;35.50;18.77;;;8.50;99.90;;;;;;4972812;28;20044;-72
2022/12/26 10:39:41;;;;;;;44.30;18.35;;;8.50;99.90;;;;;;4991143;28;20033;-73
2022/12/26 10:42:26;;;;;;;36.15;18.35;;;8.50;99.90;;;;;;4995651;28;20030;-73
2022/12/26 10:44:52;;;;;;;34.75;17.80;;;8.50;99.90;;;;;;5005947;28;20236;-73
2022/12/26 10:47:24;;;;;;;36.38;17.08;;;8.50;99.90;;;;;;4990074;28;20034;-73
2022/12/26 10:49:49;;;;;;;49.35;20.45;;;8.60;99.90;;;;;;4990594;28;20370;-73
2022/12/26 10:52:17;;;;;;;34.97;18.00;;;8.60;99.90;;;;;;5006150;28;20026;-73
2022/12/26 10:54:52;;;;;;;39.70;18.05;;;8.50;99.90;;;;;;5004309;28;20038;-73
2022/12/26 10:57:18;;;;;;;44.50;19.83;;;8.60;99.90;;;;;;4989622;28;20076;-73
2022/12/26 10:59:48;;;;;;;42.55;18.67;;;8.60;99.90;;;;;;5005320;28;20263;-73
2022/12/26 11:02:28;;;;;;;31.88;16.35;;;8.70;99.90;;;;;;4989456;28;20193;-73
2022/12/26 11:05:21;;;;;;;35.42;16.88;;;8.70;99.90;;;;;;4989836;28;20069;-73
2022/12/26 11:07:54;;;;;;;38.42;17.83;;;8.70;99.90;;;;;;5038893;28;20823;-73
2022/12/26 11:10:26;;;;;;;35.40;17.27;;;8.70;99.90;;;;;;5089836;28;20076;-72
2022/12/26 11:12:55;;;;;;;31.05;17.05;;;8.70;99.90;;;;;;5087883;28;20376;-73
2022/12/26 11:15:38;;;;;;;35.53;17.52;;;8.70;99.90;;;;;;5090212;28;20054;-73
2022/12/26 11:18:47;;;;;;;35.50;16.80;;;8.70;99.90;;;;;;5089859;28;20027;-72
2022/12/26 11:21:23;;;;;;;33.00;16.58;;;8.70;99.90;;;;;;5090020;28;20505;-73
2022/12/26 11:23:51;;;;;;;29.10;15.50;;;8.70;99.90;;;;;;5074681;28;20336;-73
2022/12/26 11:26:25;;;;;;;35.85;15.35;;;8.60;99.90;;;;;;5090750;28;20696;-73
2022/12/26 11:29:22;;;;;;;30.90;15.35;;;8.60;99.90;;;;;;5090346;28;20030;-73
2022/12/26 11:32:00;;;;;;;29.85;15.38;;;8.70;99.90;;;;;;5090693;28;20118;-73
2022/12/26 11:34:37;;;;;;;33.55;16.05;;;8.60;99.90;;;;;;5091357;28;20020;-72
2022/12/26 11:37:05;;;;;;;29.27;14.45;;;8.70;99.90;;;;;;5082431;28;20054;-73
2022/12/26 11:39:36;;;;;;;31.67;15.60;;;8.60;99.90;;;;;;5107737;28;20023;-73
2022/12/26 11:42:13;;;;;;;36.42;15.23;;;8.60;99.90;;;;;;5084888;28;20027;-73
2022/12/26 11:44:45;;;;;;;35.40;16.30;;;8.70;99.90;;;;;;5086526;28;20071;-72
2022/12/26 11:47:18;;;;;;;32.25;14.82;;;8.70;99.90;;;;;;5084891;28;20617;-73
2022/12/26 11:50:02;;;;;;;28.13;14.18;;;8.70;99.90;;;;;;5108134;28;20046;-73
2022/12/26 11:52:35;;;;;;;22.63;12.48;;;8.70;99.90;;;;;;5112988;28;20509;-71
2022/12/26 11:55:21;;;;;;;28.83;14.10;;;8.70;99.90;;;;;;5093840;28;20032;-73
2022/12/26 11:58:07;;;;;;;30.48;13.73;;;8.70;99.90;;;;;;5110770;28;20031;-73
2022/12/26 12:00:53;;;;;;;23.95;12.88;;;8.70;99.90;;;;;;5117347;28;20028;-73
2022/12/26 12:03:29;;;;;;;25.88;13.18;;;8.80;99.90;;;;;;5112776;28;20547;-74
2022/12/26 12:06:07;;;;;;;28.85;13.77;;;8.80;99.90;;;;;;5093994;28;20119;-73
2022/12/26 12:08:56;;;;;;;29.38;13.48;;;8.80;99.90;;;;;;5112581;28;20019;-73
2022/12/26 12:11:55;;;;;;;24.55;13.45;;;8.90;99.90;;;;;;5112718;28;20062;-74
2022/12/26 12:14:35;;;;;;;27.45;13.65;;;8.80;99.90;;;;;;5094326;28;20509;-73
2022/12/26 12:17:18;;;;;;;29.33;13.88;;;8.80;99.90;;;;;;5093618;28;20027;-73
2022/12/26 12:20:32;;;;;;;26.35;13.18;;;8.80;99.90;;;;;;5113044;28;20030;-73
2022/12/26 12:23:23;;;;;;;24.50;13.13;;;8.80;99.90;;;;;;5107392;28;20092;-73
2022/12/26 12:26:06;;;;;;;26.92;12.93;;;8.80;99.90;;;;;;5092798;28;20138;-73
2022/12/26 12:29:00;;;;;;;27.63;12.68;;;8.80;99.90;;;;;;5093905;28;20534;-73
2022/12/26 12:31:47;;;;;;;22.35;12.32;;;8.70;99.90;;;;;;5110851;28;20046;-73
2022/12/26 12:34:31;;;;;;;25.70;13.30;;;8.70;99.90;;;;;;5091737;28;20019;-73
2022/12/26 12:37:20;;;;;;;23.67;11.93;;;8.70;99.90;;;;;;5112371;28;20403;-74
2022/12/26 12:40:05;;;;;;;24.48;12.70;;;8.80;99.90;;;;;;5074869;28;20019;-73
2022/12/26 12:42:52;;;;;;;19.70;11.32;;;8.80;99.90;;;;;;5074425;28;20032;-73
2022/12/26 12:45:31;;;;;;;22.90;12.15;;;8.80;99.90;;;;;;5112782;28;20023;-73
2022/12/26 12:48:34;;;;;;;19.83;11.25;;;8.80;99.90;;;;;;5091537;28;20031;-72
2022/12/26 12:51:36;;;;;;;24.73;11.70;;;8.80;99.90;;;;;;5095242;28;20038;-72
2022/12/26 12:54:38;;;;;;;19.63;11.55;;;8.80;99.90;;;;;;5112820;28;20016;-73
2022/12/26 12:57:22;;;;;;;21.45;10.95;;;8.80;99.90;;;;;;5096000;28;20075;-73
2022/12/26 13:00:09;;;;;;;17.77;10.43;;;8.80;99.90;;;;;;5069426;28;23062;-74
2022/12/26 13:02:52;;;;;;;19.10;10.50;;;8.80;99.90;;;;;;5091423;28;20027;-73
2022/12/26 13:05:26;;;;;;;17.67;10.27;;;8.80;99.90;;;;;;5093317;28;20053;-73
2022/12/26 13:08:03;;;;;;;20.67;11.32;;;9.00;99.90;;;;;;5093526;28;20118;-73
2022/12/26 13:10:34;;;;;;;21.55;11.52;;;8.90;99.90;;;;;;5075893;28;20039;-73
2022/12/26 13:13:25;;;;;;;19.83;12.25;;;8.90;99.90;;;;;;5073405;28;20435;-73
2022/12/26 13:15:55;;;;;;;16.52;9.82;;;8.90;99.90;;;;;;5104332;28;20020;-73
2022/12/26 13:18:25;;;;;;;16.42;9.55;;;8.90;99.90;;;;;;5091861;28;20020;-73
2022/12/26 13:21:03;;;;;;;16.53;9.63;;;8.90;99.90;;;;;;5092711;28;20035;-74
2022/12/26 13:26:48;;;;;;;11.38;4.43;;;8.90;99.90;;;;;;5110611;28;20039;-73
2022/12/26 13:29:35;;;;;;;10.98;4.25;;;8.90;99.90;;;;;;5087998;28;20080;-73
2022/12/26 13:32:03;;;;;;;5.75;2.80;;;8.90;99.90;;;;;;5089328;28;20032;-73
2022/12/26 13:34:30;;;;;;;5.57;2.08;;;9.00;99.90;;;;;;5091677;28;20053;-73
2022/12/26 13:36:58;;;;;;;8.60;2.42;;;8.90;99.90;;;;;;5111275;28;20019;-73
2022/12/26 13:39:30;;;;;;;6.60;1.83;;;8.90;99.90;;;;;;5108420;28;20447;-73
2022/12/26 13:44:53;;;;;;;7.60;1.40;;;8.80;99.90;;;;;;5114091;28;20149;-74
2022/12/26 13:47:38;;;;;;;5.65;1.20;;;8.70;99.90;;;;;;5109966;28;20126;-73
2022/12/26 13:50:42;;;;;;;4.97;1.20;;;8.70;99.90;;;;;;5092564;28;20387;-73
2022/12/26 13:53:23;;;;;;;4.07;1.13;;;8.60;99.90;;;;;;5091725;28;20174;-73
2022/12/26 13:55:54;;;;;;;5.55;1.10;;;8.60;99.90;;;;;;5110246;28;20027;-73
2022/12/26 13:58:36;;;;;;;4.05;0.90;;;8.40;99.90;;;;;;5110863;28;20081;-73
2022/12/26 14:01:33;;;;;;;4.40;0.77;;;8.30;99.90;;;;;;5091902;28;20563;-73
2022/12/26 14:04:07;;;;;;;3.97;1.05;;;8.30;99.90;;;;;;5092624;28;20031;-73
2022/12/26 14:06:55;;;;;;;3.60;1.38;;;8.20;99.90;;;;;;5091604;28;20483;-73
2022/12/26 14:09:58;;;;;;;5.13;1.15;;;8.20;99.90;;;;;;5087412;28;20032;-73
2022/12/26 14:12:39;;;;;;;7.28;1.48;;;8.20;99.90;;;;;;5091921;28;20043;-73
2022/12/26 14:15:34;;;;;;;3.28;1.15;;;8.00;99.90;;;;;;5095509;28;20028;-73
2022/12/26 14:18:14;;;;;;;5.40;1.00;;;7.90;99.90;;;;;;5111064;28;20031;-73
2022/12/26 14:21:17;;;;;;;4.15;0.82;;;7.90;99.90;;;;;;5110375;28;20465;-72
2022/12/26 14:23:59;;;;;;;6.95;1.25;;;7.80;99.90;;;;;;5090599;28;20024;-73
2022/12/26 14:26:45;;;;;;;5.07;1.00;;;7.80;99.90;;;;;;5100091;28;20378;-73
2022/12/26 14:29:29;;;;;;;5.10;1.17;;;7.70;99.90;;;;;;5109175;28;20024;-73
2022/12/26 14:32:16;;;;;;;4.10;0.90;;;7.60;99.90;;;;;;5110378;28;20028;-73
2022/12/26 14:35:13;;;;;;;8.55;1.40;;;7.50;99.90;;;;;;5110657;28;20449;-73
2022/12/26 14:37:47;;;;;;;6.75;1.55;;;7.40;99.90;;;;;;5109810;28;20024;-73
2022/12/26 14:40:23;;;;;;;9.40;1.90;;;7.40;99.90;;;;;;5108024;28;20426;-73
2022/12/26 14:43:12;;;;;;;14.65;2.63;;;7.40;99.90;;;;;;5109156;28;20050;-73
2022/12/26 14:45:49;;;;;;;14.88;2.10;;;7.40;99.90;;;;;;5090915;28;20103;-72
2022/12/26 14:48:15;;;;;;;18.48;1.95;;;7.40;99.90;;;;;;5108624;28;20074;-73
2022/12/26 14:51:02;;;;;;;12.80;1.52;;;7.40;99.90;;;;;;5088131;28;20027;-72
2022/12/26 14:53:33;;;;;;;10.60;1.45;;;7.40;99.90;;;;;;5074595;28;20111;-73
2022/12/26 14:56:09;;;;;;;12.75;1.77;;;7.40;99.90;;;;;;5108100;28;20074;-73
2022/12/26 14:58:49;;;;;;;11.52;1.70;;;7.40;99.90;;;;;;5092038;28;20024;-73
2022/12/26 15:01:16;;;;;;;8.77;1.80;;;7.40;99.90;;;;;;5091659;28;20402;-73
2022/12/26 15:04:09;;;;;;;12.07;1.92;;;7.30;99.90;;;;;;5109358;28;20058;-73
2022/12/26 15:06:57;;;;;;;8.95;1.10;;;7.20;99.90;;;;;;5109404;28;20036;-73
2022/12/26 15:09:33;;;;;;;9.70;1.30;;;7.10;99.90;;;;;;5106215;28;20028;-73
2022/12/26 15:12:37;;;;;;;7.60;1.08;;;7.00;99.90;;;;;;5091418;28;20054;-73
2022/12/26 15:15:24;;;;;;;9.20;1.30;;;7.00;99.90;;;;;;5090752;28;20016;-72
2022/12/26 15:18:11;;;;;;;6.45;1.52;;;7.00;99.90;;;;;;5109337;28;20030;-72
2022/12/26 15:21:11;;;;;;;11.98;1.65;;;7.00;99.90;;;;;;5108154;28;20031;-73
2022/12/26 15:24:04;;;;;;;6.15;2.15;;;6.90;99.90;;;;;;5055306;28;20039;-72